Terminal Aerodrome Forecast
Issued by NWS

Home | Current Version | Previous Version | Text Only | Print | Product List | Glossary On
Versions: 1 2 3 4 5 6 7 8 9 10 11 12 13 14 15 16 17 18 19 20 21 22 23 24 25 26 27 28 29 30 31 32
000
FTUS43 KDMX 251238 AAA
TAFMCW
TAF AMD
KMCW 251238Z 2513/2612 34004KT 3SM BR BKN004 OVC050
      TEMPO 2513/2515 1/2SM FG OVC002
     FM251500 08005KT 6SM BR VCSH BKN006
     FM251700 16004KT 6SM BR VCSH SCT010 BKN045
     FM252200 32006KT 5SM BR VCSH SCT010 BKN030
     FM260300 35004KT 5SM BR VCSH OVC015
     FM260800 26006KT 2SM BR VCSH OVC005=

USA.gov is the U.S. government's official web portal to all federal, state and local government web resources and services.